sensor_id;sensor_type;location;lat;lon;timestamp;temperature;humidity
69162;DHT22;56269;51.738;21.652;2023-11-19T00:00:44;-0.56;99.99
69162;DHT22;56269;51.738;21.652;2023-11-19T00:03:30;-0.54;99.99
69162;DHT22;56269;51.738;21.652;2023-11-19T00:05:56;-0.54;99.99
69162;DHT22;56269;51.738;21.652;2023-11-19T00:08:22;-0.56;99.99
69162;DHT22;56269;51.738;21.652;2023-11-19T00:10:50;-0.56;99.99
69162;DHT22;56269;51.738;21.652;2023-11-19T00:13:17;-0.56;99.99
69162;DHT22;56269;51.738;21.652;2023-11-19T00:15:43;-0.53;99.99
69162;DHT22;56269;51.738;21.652;2023-11-19T00:18:11;-0.53;99.99
69162;DHT22;56269;51.738;21.652;2023-11-19T00:20:37;-0.53;99.99
69162;DHT22;56269;51.738;21.652;2023-11-19T00:23:03;-0.53;99.99
69162;DHT22;56269;51.738;21.652;2023-11-19T00:25:29;-0.52;99.99
69162;DHT22;56269;51.738;21.652;2023-11-19T00:27:56;-0.53;99.99
69162;DHT22;56269;51.738;21.652;2023-11-19T00:30:25;-0.53;99.99
69162;DHT22;56269;51.738;21.652;2023-11-19T00:32:51;-0.56;99.99
69162;DHT22;56269;51.738;21.652;2023-11-19T00:35:17;-0.54;99.99
69162;DHT22;56269;51.738;21.652;2023-11-19T00:37:43;-0.53;99.99
69162;DHT22;56269;51.738;21.652;2023-11-19T00:40:11;-0.53;99.99
69162;DHT22;56269;51.738;21.652;2023-11-19T00:42:37;-0.50;99.99
69162;DHT22;56269;51.738;21.652;2023-11-19T00:45:05;-0.48;99.99
69162;DHT22;56269;51.738;21.652;2023-11-19T00:47:35;-0.49;99.99
69162;DHT22;56269;51.738;21.652;2023-11-19T00:50:02;-0.52;99.99
69162;DHT22;56269;51.738;21.652;2023-11-19T00:52:29;-0.49;99.99
69162;DHT22;56269;51.738;21.652;2023-11-19T00:54:55;-0.52;99.99
69162;DHT22;56269;51.738;21.652;2023-11-19T00:57:22;-0.54;99.99
69162;DHT22;56269;51.738;21.652;2023-11-19T00:59:49;-0.54;99.99
69162;DHT22;56269;51.738;21.652;2023-11-19T01:02:16;-0.52;99.99
69162;DHT22;56269;51.738;21.652;2023-11-19T01:04:43;-0.54;99.99
69162;DHT22;56269;51.738;21.652;2023-11-19T01:07:10;-0.52;99.99
69162;DHT22;56269;51.738;21.652;2023-11-19T01:09:38;-0.53;99.99
69162;DHT22;56269;51.738;21.652;2023-11-19T01:12:07;-0.50;99.99
69162;DHT22;56269;51.738;21.652;2023-11-19T01:14:34;-0.50;99.99
69162;DHT22;56269;51.738;21.652;2023-11-19T01:17:01;-0.49;99.99
69162;DHT22;56269;51.738;21.652;2023-11-19T01:19:27;-0.50;99.99
69162;DHT22;56269;51.738;21.652;2023-11-19T01:21:54;-0.50;99.99
69162;DHT22;56269;51.738;21.652;2023-11-19T01:24:21;-0.50;99.99
69162;DHT22;56269;51.738;21.652;2023-11-19T01:26:47;-0.52;99.99
69162;DHT22;56269;51.738;21.652;2023-11-19T01:29:15;-0.53;99.99
69162;DHT22;56269;51.738;21.652;2023-11-19T01:31:42;-0.54;99.99
69162;DHT22;56269;51.738;21.652;2023-11-19T01:34:09;-0.56;99.99
69162;DHT22;56269;51.738;21.652;2023-11-19T01:36:36;-0.56;99.99
69162;DHT22;56269;51.738;21.652;2023-11-19T01:39:05;-0.54;99.99
69162;DHT22;56269;51.738;21.652;2023-11-19T01:41:35;-0.49;99.99
69162;DHT22;56269;51.738;21.652;2023-11-19T01:44:02;-0.48;99.99
69162;DHT22;56269;51.738;21.652;2023-11-19T01:46:29;-0.50;99.99
69162;DHT22;56269;51.738;21.652;2023-11-19T01:48:56;-0.48;99.99
69162;DHT22;56269;51.738;21.652;2023-11-19T01:51:23;-0.49;99.99
69162;DHT22;56269;51.738;21.652;2023-11-19T01:53:49;-0.49;99.99
69162;DHT22;56269;51.738;21.652;2023-11-19T01:56:16;-0.48;99.99
69162;DHT22;56269;51.738;21.652;2023-11-19T01:58:43;-0.48;99.99
69162;DHT22;56269;51.738;21.652;2023-11-19T02:01:11;-0.48;99.99
69162;DHT22;56269;51.738;21.652;2023-11-19T02:03:38;-0.49;99.99
69162;DHT22;56269;51.738;21.652;2023-11-19T02:06:05;-0.48;99.99
69162;DHT22;56269;51.738;21.652;2023-11-19T02:08:31;-0.49;99.99
69162;DHT22;56269;51.738;21.652;2023-11-19T02:10:57;-0.43;99.99
69162;DHT22;56269;51.738;21.652;2023-11-19T02:13:27;-0.46;99.99
69162;DHT22;56269;51.738;21.652;2023-11-19T02:15:54;-0.46;99.99
69162;DHT22;56269;51.738;21.652;2023-11-19T02:18:21;-0.48;99.99
69162;DHT22;56269;51.738;21.652;2023-11-19T02:20:49;-0.44;99.99
69162;DHT22;56269;51.738;21.652;2023-11-19T02:23:16;-0.40;99.99
69162;DHT22;56269;51.738;21.652;2023-11-19T02:25:47;-0.43;99.99
69162;DHT22;56269;51.738;21.652;2023-11-19T02:28:17;-0.42;99.99
69162;DHT22;56269;51.738;21.652;2023-11-19T02:30:44;-0.46;99.99
69162;DHT22;56269;51.738;21.652;2023-11-19T02:33:10;-0.48;99.99
69162;DHT22;56269;51.738;21.652;2023-11-19T02:35:36;-0.46;99.99
69162;DHT22;56269;51.738;21.652;2023-11-19T02:38:02;-0.39;99.99
69162;DHT22;56269;51.738;21.652;2023-11-19T02:40:29;-0.44;99.99
69162;DHT22;56269;51.738;21.652;2023-11-19T02:42:56;-0.44;99.99
69162;DHT22;56269;51.738;21.652;2023-11-19T02:45:23;-0.46;99.99
69162;DHT22;56269;51.738;21.652;2023-11-19T02:47:49;-0.49;99.99
69162;DHT22;56269;51.738;21.652;2023-11-19T02:50:17;-0.46;99.99
69162;DHT22;56269;51.738;21.652;2023-11-19T02:52:44;-0.46;99.99
69162;DHT22;56269;51.738;21.652;2023-11-19T02:55:12;-0.46;99.99
69162;DHT22;56269;51.738;21.652;2023-11-19T02:57:39;-0.46;99.99
69162;DHT22;56269;51.738;21.652;2023-11-19T03:00:19;-0.46;99.99
69162;DHT22;56269;51.738;21.652;2023-11-19T03:02:49;-0.42;99.99
69162;DHT22;56269;51.738;21.652;2023-11-19T03:05:27;-0.40;99.99
69162;DHT22;56269;51.738;21.652;2023-11-19T03:07:56;-0.44;99.99
69162;DHT22;56269;51.738;21.652;2023-11-19T03:10:23;-0.44;99.99
69162;DHT22;56269;51.738;21.652;2023-11-19T03:12:49;-0.46;99.99
69162;DHT22;56269;51.738;21.652;2023-11-19T03:15:16;-0.43;99.99
69162;DHT22;56269;51.738;21.652;2023-11-19T03:17:42;-0.46;99.99
69162;DHT22;56269;51.738;21.652;2023-11-19T03:20:11;-0.48;99.99
69162;DHT22;56269;51.738;21.652;2023-11-19T03:22:43;-0.44;99.99
69162;DHT22;56269;51.738;21.652;2023-11-19T03:25:10;-0.43;99.99
69162;DHT22;56269;51.738;21.652;2023-11-19T03:27:37;-0.43;99.99
69162;DHT22;56269;51.738;21.652;2023-11-19T03:30:07;-0.49;99.99
69162;DHT22;56269;51.738;21.652;2023-11-19T03:32:35;-0.44;99.99
69162;DHT22;56269;51.738;21.652;2023-11-19T03:35:02;-0.42;99.99
69162;DHT22;56269;51.738;21.652;2023-11-19T03:37:30;-0.42;99.99
69162;DHT22;56269;51.738;21.652;2023-11-19T03:39:58;-0.46;99.99
69162;DHT22;56269;51.738;21.652;2023-11-19T03:42:29;-0.46;99.99
69162;DHT22;56269;51.738;21.652;2023-11-19T03:44:56;-0.44;99.99
69162;DHT22;56269;51.738;21.652;2023-11-19T03:47:22;-0.44;99.99
69162;DHT22;56269;51.738;21.652;2023-11-19T03:49:49;-0.42;99.99
69162;DHT22;56269;51.738;21.652;2023-11-19T03:52:16;-0.43;99.99
69162;DHT22;56269;51.738;21.652;2023-11-19T03:54:43;-0.42;99.99
69162;DHT22;56269;51.738;21.652;2023-11-19T03:57:09;-0.39;99.99
69162;DHT22;56269;51.738;21.652;2023-11-19T03:59:39;-0.39;99.99
69162;DHT22;56269;51.738;21.652;2023-11-19T04:02:05;-0.40;99.99
69162;DHT22;56269;51.738;21.652;2023-11-19T04:04:32;-0.39;99.99
69162;DHT22;56269;51.738;21.652;2023-11-19T04:07:00;-0.39;99.99
69162;DHT22;56269;51.738;21.652;2023-11-19T04:09:26;-0.39;99.99
69162;DHT22;56269;51.738;21.652;2023-11-19T04:11:52;-0.40;99.99
69162;DHT22;56269;51.738;21.652;2023-11-19T04:14:19;-0.42;99.99
69162;DHT22;56269;51.738;21.652;2023-11-19T04:16:45;-0.43;99.99
69162;DHT22;56269;51.738;21.652;2023-11-19T04:19:11;-0.42;99.99
69162;DHT22;56269;51.738;21.652;2023-11-19T04:21:40;-0.39;99.99
69162;DHT22;56269;51.738;21.652;2023-11-19T04:24:09;-0.42;99.99
69162;DHT22;56269;51.738;21.652;2023-11-19T04:26:41;-0.39;99.99
69162;DHT22;56269;51.738;21.652;2023-11-19T04:29:12;-0.46;99.99
69162;DHT22;56269;51.738;21.652;2023-11-19T04:31:39;-0.44;99.99
69162;DHT22;56269;51.738;21.652;2023-11-19T04:34:06;-0.46;99.99
69162;DHT22;56269;51.738;21.652;2023-11-19T04:36:33;-0.44;99.99
69162;DHT22;56269;51.738;21.652;2023-11-19T04:39:00;-0.46;99.99
69162;DHT22;56269;51.738;21.652;2023-11-19T04:41:27;-0.40;99.99
69162;DHT22;56269;51.738;21.652;2023-11-19T04:43:56;-0.43;99.99
69162;DHT22;56269;51.738;21.652;2023-11-19T04:46:22;-0.39;99.99
69162;DHT22;56269;51.738;21.652;2023-11-19T04:48:49;-0.39;99.99
69162;DHT22;56269;51.738;21.652;2023-11-19T04:51:16;-0.39;99.99
69162;DHT22;56269;51.738;21.652;2023-11-19T04:53:43;-0.36;99.99
69162;DHT22;56269;51.738;21.652;2023-11-19T04:56:09;-0.42;99.99
69162;DHT22;56269;51.738;21.652;2023-11-19T04:58:36;-0.40;99.99
69162;DHT22;56269;51.738;21.652;2023-11-19T05:01:03;-0.40;99.99
69162;DHT22;56269;51.738;21.652;2023-11-19T05:03:33;-0.40;99.99
69162;DHT22;56269;51.738;21.652;2023-11-19T05:05:59;-0.39;99.99
69162;DHT22;56269;51.738;21.652;2023-11-19T05:08:25;-0.34;99.99
69162;DHT22;56269;51.738;21.652;2023-11-19T05:10:51;-0.34;99.99
69162;DHT22;56269;51.738;21.652;2023-11-19T05:13:17;-0.33;99.99
69162;DHT22;56269;51.738;21.652;2023-11-19T05:15:43;-0.32;99.99
69162;DHT22;56269;51.738;21.652;2023-11-19T05:18:10;-0.34;99.99
69162;DHT22;56269;51.738;21.652;2023-11-19T05:20:36;-0.37;99.99
69162;DHT22;56269;51.738;21.652;2023-11-19T05:23:02;-0.34;99.99
69162;DHT22;56269;51.738;21.652;2023-11-19T05:25:28;-0.33;99.99
69162;DHT22;56269;51.738;21.652;2023-11-19T05:27:54;-0.34;99.99
69162;DHT22;56269;51.738;21.652;2023-11-19T05:30:20;-0.36;99.99
69162;DHT22;56269;51.738;21.652;2023-11-19T05:32:49;-0.37;99.99
69162;DHT22;56269;51.738;21.652;2023-11-19T05:35:15;-0.33;99.99
69162;DHT22;56269;51.738;21.652;2023-11-19T05:37:42;-0.34;99.99
69162;DHT22;56269;51.738;21.652;2023-11-19T05:40:08;-0.36;99.99
69162;DHT22;56269;51.738;21.652;2023-11-19T05:42:41;-0.37;99.99
69162;DHT22;56269;51.738;21.652;2023-11-19T05:45:08;-0.36;99.99
69162;DHT22;56269;51.738;21.652;2023-11-19T05:47:35;-0.39;99.99
69162;DHT22;56269;51.738;21.652;2023-11-19T05:50:01;-0.42;99.99
69162;DHT22;56269;51.738;21.652;2023-11-19T05:52:28;-0.42;99.99
69162;DHT22;56269;51.738;21.652;2023-11-19T05:55:02;-0.37;99.99
69162;DHT22;56269;51.738;21.652;2023-11-19T05:57:38;-0.39;99.99
69162;DHT22;56269;51.738;21.652;2023-11-19T06:00:05;-0.30;99.99
69162;DHT22;56269;51.738;21.652;2023-11-19T06:02:35;-0.33;99.99
69162;DHT22;56269;51.738;21.652;2023-11-19T06:05:03;-0.30;99.99
69162;DHT22;56269;51.738;21.652;2023-11-19T06:07:32;-0.32;99.99
69162;DHT22;56269;51.738;21.652;2023-11-19T06:09:58;-0.28;99.99
69162;DHT22;56269;51.738;21.652;2023-11-19T06:12:24;-0.28;99.99
69162;DHT22;56269;51.738;21.652;2023-11-19T06:14:50;-0.23;99.99
69162;DHT22;56269;51.738;21.652;2023-11-19T06:17:16;-0.20;99.99
69162;DHT22;56269;51.738;21.652;2023-11-19T06:19:43;-0.13;99.99
69162;DHT22;56269;51.738;21.652;2023-11-19T06:22:09;-0.10;99.99
69162;DHT22;56269;51.738;21.652;2023-11-19T06:24:35;-0.08;99.99
69162;DHT22;56269;51.738;21.652;2023-11-19T06:27:02;-0.10;99.99
69162;DHT22;56269;51.738;21.652;2023-11-19T06:29:28;-0.15;99.99
69162;DHT22;56269;51.738;21.652;2023-11-19T06:31:54;-0.09;99.99
69162;DHT22;56269;51.738;21.652;2023-11-19T06:34:20;-0.03;99.99
69162;DHT22;56269;51.738;21.652;2023-11-19T06:36:47;-0.06;99.99
69162;DHT22;56269;51.738;21.652;2023-11-19T06:39:14;-0.08;99.99
69162;DHT22;56269;51.738;21.652;2023-11-19T06:41:45;-0.08;99.99
69162;DHT22;56269;51.738;21.652;2023-11-19T06:44:12;-0.06;99.99
69162;DHT22;56269;51.738;21.652;2023-11-19T06:46:39;-0.08;99.99
69162;DHT22;56269;51.738;21.652;2023-11-19T06:49:05;-0.05;99.99
69162;DHT22;56269;51.738;21.652;2023-11-19T06:51:34;-0.02;99.99
69162;DHT22;56269;51.738;21.652;2023-11-19T06:54:00;0.02;99.99
69162;DHT22;56269;51.738;21.652;2023-11-19T06:56:27;0.01;99.99
69162;DHT22;56269;51.738;21.652;2023-11-19T06:58:54;0.01;99.99
69162;DHT22;56269;51.738;21.652;2023-11-19T07:01:20;0.05;99.99
69162;DHT22;56269;51.738;21.652;2023-11-19T07:03:47;0.11;99.99
69162;DHT22;56269;51.738;21.652;2023-11-19T07:06:13;0.09;99.99
69162;DHT22;56269;51.738;21.652;2023-11-19T07:08:43;0.11;99.99
69162;DHT22;56269;51.738;21.652;2023-11-19T07:11:13;0.08;99.99
69162;DHT22;56269;51.738;21.652;2023-11-19T07:13:42;0.08;99.99
69162;DHT22;56269;51.738;21.652;2023-11-19T07:16:09;0.09;99.95
69162;DHT22;56269;51.738;21.652;2023-11-19T07:18:38;0.15;99.99
69162;DHT22;56269;51.738;21.652;2023-11-19T07:21:04;0.15;99.99
69162;DHT22;56269;51.738;21.652;2023-11-19T07:23:30;0.15;99.97
69162;DHT22;56269;51.738;21.652;2023-11-19T07:25:57;0.18;99.99
69162;DHT22;56269;51.738;21.652;2023-11-19T07:28:24;0.13;99.99
69162;DHT22;56269;51.738;21.652;2023-11-19T07:30:51;0.16;99.89
69162;DHT22;56269;51.738;21.652;2023-11-19T07:33:17;0.18;99.69
69162;DHT22;56269;51.738;21.652;2023-11-19T07:35:43;0.19;99.75
69162;DHT22;56269;51.738;21.652;2023-11-19T07:38:10;0.22;99.69
69162;DHT22;56269;51.738;21.652;2023-11-19T07:40:36;0.18;99.63
69162;DHT22;56269;51.738;21.652;2023-11-19T07:43:02;0.19;99.45
69162;DHT22;56269;51.738;21.652;2023-11-19T07:45:29;0.16;99.57
69162;DHT22;56269;51.738;21.652;2023-11-19T07:47:55;0.15;99.60
69162;DHT22;56269;51.738;21.652;2023-11-19T07:50:21;0.15;99.55
69162;DHT22;56269;51.738;21.652;2023-11-19T07:52:47;0.15;99.56
69162;DHT22;56269;51.738;21.652;2023-11-19T07:55:14;0.18;99.51
69162;DHT22;56269;51.738;21.652;2023-11-19T07:57:40;0.12;99.48
69162;DHT22;56269;51.738;21.652;2023-11-19T08:00:07;0.16;99.60
69162;DHT22;56269;51.738;21.652;2023-11-19T08:02:35;0.19;99.56
69162;DHT22;56269;51.738;21.652;2023-11-19T08:05:01;0.16;99.53
69162;DHT22;56269;51.738;21.652;2023-11-19T08:07:27;0.21;99.74
69162;DHT22;56269;51.738;21.652;2023-11-19T08:09:54;0.23;99.22
69162;DHT22;56269;51.738;21.652;2023-11-19T08:12:20;0.26;99.27
69162;DHT22;56269;51.738;21.652;2023-11-19T08:14:46;0.28;99.37
69162;DHT22;56269;51.738;21.652;2023-11-19T08:17:12;0.25;99.28
69162;DHT22;56269;51.738;21.652;2023-11-19T08:19:38;0.26;99.24
69162;DHT22;56269;51.738;21.652;2023-11-19T08:22:04;0.28;99.25
69162;DHT22;56269;51.738;21.652;2023-11-19T08:24:31;0.25;99.23
69162;DHT22;56269;51.738;21.652;2023-11-19T08:26:57;0.28;99.47
69162;DHT22;56269;51.738;21.652;2023-11-19T08:29:23;0.33;99.18
69162;DHT22;56269;51.738;21.652;2023-11-19T08:31:49;0.33;99.16
69162;DHT22;56269;51.738;21.652;2023-11-19T08:34:15;0.38;98.93
69162;DHT22;56269;51.738;21.652;2023-11-19T08:36:41;0.41;98.68
69162;DHT22;56269;51.738;21.652;2023-11-19T08:39:07;0.49;98.68
69162;DHT22;56269;51.738;21.652;2023-11-19T08:41:34;0.46;98.81
69162;DHT22;56269;51.738;21.652;2023-11-19T08:44:00;0.49;98.72
69162;DHT22;56269;51.738;21.652;2023-11-19T08:46:27;0.50;98.77
69162;DHT22;56269;51.738;21.652;2023-11-19T08:48:53;0.56;98.66
69162;DHT22;56269;51.738;21.652;2023-11-19T08:51:22;0.54;98.63
69162;DHT22;56269;51.738;21.652;2023-11-19T08:53:50;0.54;98.56
69162;DHT22;56269;51.738;21.652;2023-11-19T08:56:16;0.53;98.81
69162;DHT22;56269;51.738;21.652;2023-11-19T08:58:43;0.56;98.95
69162;DHT22;56269;51.738;21.652;2023-11-19T09:01:09;0.53;98.95
69162;DHT22;56269;51.738;21.652;2023-11-19T09:03:36;0.52;99.01
69162;DHT22;56269;51.738;21.652;2023-11-19T09:06:02;0.50;99.16
69162;DHT22;56269;51.738;21.652;2023-11-19T09:08:29;0.45;99.12
69162;DHT22;56269;51.738;21.652;2023-11-19T09:10:55;0.48;99.30
69162;DHT22;56269;51.738;21.652;2023-11-19T09:13:21;0.50;99.11
69162;DHT22;56269;51.738;21.652;2023-11-19T09:15:47;0.64;98.80
69162;DHT22;56269;51.738;21.652;2023-11-19T09:18:13;0.79;98.58
69162;DHT22;56269;51.738;21.652;2023-11-19T09:20:39;0.77;97.98
69162;DHT22;56269;51.738;21.652;2023-11-19T09:23:06;0.88;97.76
69162;DHT22;56269;51.738;21.652;2023-11-19T09:25:34;1.05;97.32
69162;DHT22;56269;51.738;21.652;2023-11-19T09:28:00;1.05;97.10
69162;DHT22;56269;51.738;21.652;2023-11-19T09:30:27;1.15;96.87
69162;DHT22;56269;51.738;21.652;2023-11-19T09:32:53;1.09;96.85
69162;DHT22;56269;51.738;21.652;2023-11-19T09:35:19;1.03;96.88
69162;DHT22;56269;51.738;21.652;2023-11-19T09:37:46;1.15;97.00
69162;DHT22;56269;51.738;21.652;2023-11-19T09:40:12;1.13;96.63
69162;DHT22;56269;51.738;21.652;2023-11-19T09:42:47;1.05;96.68
69162;DHT22;56269;51.738;21.652;2023-11-19T09:45:15;1.13;96.97
69162;DHT22;56269;51.738;21.652;2023-11-19T09:47:45;1.04;97.20
69162;DHT22;56269;51.738;21.652;2023-11-19T09:50:17;0.97;97.12
69162;DHT22;56269;51.738;21.652;2023-11-19T09:52:47;0.93;97.55
69162;DHT22;56269;51.738;21.652;2023-11-19T09:55:14;0.87;97.35
69162;DHT22;56269;51.738;21.652;2023-11-19T09:57:41;0.87;97.55
69162;DHT22;56269;51.738;21.652;2023-11-19T10:00:08;0.77;97.72
69162;DHT22;56269;51.738;21.652;2023-11-19T10:02:37;0.80;97.94
69162;DHT22;56269;51.738;21.652;2023-11-19T10:05:07;0.74;97.83
69162;DHT22;56269;51.738;21.652;2023-11-19T10:07:34;0.79;97.94
69162;DHT22;56269;51.738;21.652;2023-11-19T10:10:03;0.67;97.78
69162;DHT22;56269;51.738;21.652;2023-11-19T10:12:30;0.67;98.09
69162;DHT22;56269;51.738;21.652;2023-11-19T10:14:57;0.69;98.10
69162;DHT22;56269;51.738;21.652;2023-11-19T10:17:28;0.72;98.01
69162;DHT22;56269;51.738;21.652;2023-11-19T10:19:55;0.69;98.03
69162;DHT22;56269;51.738;21.652;2023-11-19T10:22:23;0.67;97.86
69162;DHT22;56269;51.738;21.652;2023-11-19T10:24:49;0.69;98.06
69162;DHT22;56269;51.738;21.652;2023-11-19T10:27:16;0.66;98.13
69162;DHT22;56269;51.738;21.652;2023-11-19T10:29:46;0.67;98.23
69162;DHT22;56269;51.738;21.652;2023-11-19T10:32:13;0.69;98.19
69162;DHT22;56269;51.738;21.652;2023-11-19T10:34:40;0.77;98.33
69162;DHT22;56269;51.738;21.652;2023-11-19T10:37:07;0.81;98.17
69162;DHT22;56269;51.738;21.652;2023-11-19T10:39:52;0.76;97.88
69162;DHT22;56269;51.738;21.652;2023-11-19T10:42:22;0.72;98.19
69162;DHT22;56269;51.738;21.652;2023-11-19T10:44:48;0.74;98.05
69162;DHT22;56269;51.738;21.652;2023-11-19T10:47:14;0.83;98.01
69162;DHT22;56269;51.738;21.652;2023-11-19T10:49:43;0.81;97.94
69162;DHT22;56269;51.738;21.652;2023-11-19T10:52:17;0.87;98.04
69162;DHT22;56269;51.738;21.652;2023-11-19T10:54:49;0.81;98.13
69162;DHT22;56269;51.738;21.652;2023-11-19T10:57:21;0.90;98.05
69162;DHT22;56269;51.738;21.652;2023-11-19T10:59:52;0.90;97.87
69162;DHT22;56269;51.738;21.652;2023-11-19T11:02:24;0.84;97.62
69162;DHT22;56269;51.738;21.652;2023-11-19T11:04:51;0.88;97.83
69162;DHT22;56269;51.738;21.652;2023-11-19T11:07:21;0.84;97.58
69162;DHT22;56269;51.738;21.652;2023-11-19T11:09:49;0.81;97.80
69162;DHT22;56269;51.738;21.652;2023-11-19T11:12:17;0.79;97.93
69162;DHT22;56269;51.738;21.652;2023-11-19T11:14:48;0.80;97.92
69162;DHT22;56269;51.738;21.652;2023-11-19T11:17:17;0.79;98.28
69162;DHT22;56269;51.738;21.652;2023-11-19T11:19:45;0.83;98.33
69162;DHT22;56269;51.738;21.652;2023-11-19T11:22:13;0.85;98.39
69162;DHT22;56269;51.738;21.652;2023-11-19T11:30:35;0.73;98.53
69162;DHT22;56269;51.738;21.652;2023-11-19T11:33:21;0.73;98.38
69162;DHT22;56269;51.738;21.652;2023-11-19T11:38:36;0.69;98.32
69162;DHT22;56269;51.738;21.652;2023-11-19T11:41:16;0.74;98.46
69162;DHT22;56269;51.738;21.652;2023-11-19T11:43:52;0.80;98.64
69162;DHT22;56269;51.738;21.652;2023-11-19T11:49:06;1.00;97.92
69162;DHT22;56269;51.738;21.652;2023-11-19T11:54:26;1.23;97.29
69162;DHT22;56269;51.738;21.652;2023-11-19T11:57:04;1.07;97.16
69162;DHT22;56269;51.738;21.652;2023-11-19T12:02:29;0.94;97.44
69162;DHT22;56269;51.738;21.652;2023-11-19T12:04:55;0.87;97.67
69162;DHT22;56269;51.738;21.652;2023-11-19T12:07:23;0.84;97.95
69162;DHT22;56269;51.738;21.652;2023-11-19T12:10:05;0.80;98.19
69162;DHT22;56269;51.738;21.652;2023-11-19T12:12:33;0.81;98.62
69162;DHT22;56269;51.738;21.652;2023-11-19T12:20:02;0.70;98.46
69162;DHT22;56269;51.738;21.652;2023-11-19T12:22:31;0.72;98.56
69162;DHT22;56269;51.738;21.652;2023-11-19T12:24:58;0.72;98.68
69162;DHT22;56269;51.738;21.652;2023-11-19T12:27:24;0.69;98.46
69162;DHT22;56269;51.738;21.652;2023-11-19T12:29:52;0.64;98.50
69162;DHT22;56269;51.738;21.652;2023-11-19T12:32:19;0.67;98.50
69162;DHT22;56269;51.738;21.652;2023-11-19T12:34:45;0.67;98.60
69162;DHT22;56269;51.738;21.652;2023-11-19T12:37:11;0.67;98.76
69162;DHT22;56269;51.738;21.652;2023-11-19T12:39:38;0.64;98.57
69162;DHT22;56269;51.738;21.652;2023-11-19T12:42:04;0.66;98.84
69162;DHT22;56269;51.738;21.652;2023-11-19T12:44:31;0.69;98.89
69162;DHT22;56269;51.738;21.652;2023-11-19T12:49:27;0.69;98.68
69162;DHT22;56269;51.738;21.652;2023-11-19T12:51:53;0.70;98.71
69162;DHT22;56269;51.738;21.652;2023-11-19T12:54:20;0.73;98.30
69162;DHT22;56269;51.738;21.652;2023-11-19T12:56:52;0.72;98.08
69162;DHT22;56269;51.738;21.652;2023-11-19T12:59:19;0.72;98.61
69162;DHT22;56269;51.738;21.652;2023-11-19T13:01:58;0.74;98.29
69162;DHT22;56269;51.738;21.652;2023-11-19T13:04:34;0.74;98.41
69162;DHT22;56269;51.738;21.652;2023-11-19T13:07:00;0.76;98.08
69162;DHT22;56269;51.738;21.652;2023-11-19T13:09:27;0.76;98.12
69162;DHT22;56269;51.738;21.652;2023-11-19T13:11:55;0.72;98.02
69162;DHT22;56269;51.738;21.652;2023-11-19T13:14:22;0.72;98.51
69162;DHT22;56269;51.738;21.652;2023-11-19T13:16:49;0.70;98.41
69162;DHT22;56269;51.738;21.652;2023-11-19T13:19:15;0.72;98.54
69162;DHT22;56269;51.738;21.652;2023-11-19T13:21:45;0.70;98.52
69162;DHT22;56269;51.738;21.652;2023-11-19T13:24:13;0.67;98.73
69162;DHT22;56269;51.738;21.652;2023-11-19T13:26:39;0.66;98.93
69162;DHT22;56269;51.738;21.652;2023-11-19T13:29:06;0.64;98.64
69162;DHT22;56269;51.738;21.652;2023-11-19T13:31:32;0.66;99.01
69162;DHT22;56269;51.738;21.652;2023-11-19T13:34:01;0.66;99.13
69162;DHT22;56269;51.738;21.652;2023-11-19T13:36:27;0.66;98.98
69162;DHT22;56269;51.738;21.652;2023-11-19T13:38:54;0.66;99.04
69162;DHT22;56269;51.738;21.652;2023-11-19T13:41:27;0.67;98.73
69162;DHT22;56269;51.738;21.652;2023-11-19T13:43:53;0.63;98.79
69162;DHT22;56269;51.738;21.652;2023-11-19T13:46:20;0.66;99.00
69162;DHT22;56269;51.738;21.652;2023-11-19T13:48:47;0.64;98.94
69162;DHT22;56269;51.738;21.652;2023-11-19T13:51:15;0.66;98.80
69162;DHT22;56269;51.738;21.652;2023-11-19T13:53:42;0.67;98.80
69162;DHT22;56269;51.738;21.652;2023-11-19T13:56:09;0.64;99.09
69162;DHT22;56269;51.738;21.652;2023-11-19T13:58:35;0.64;99.06
69162;DHT22;56269;51.738;21.652;2023-11-19T14:01:02;0.60;98.63
69162;DHT22;56269;51.738;21.652;2023-11-19T14:03:29;0.64;98.80
69162;DHT22;56269;51.738;21.652;2023-11-19T14:05:55;0.66;98.80
69162;DHT22;56269;51.738;21.652;2023-11-19T14:08:23;0.64;99.01
69162;DHT22;56269;51.738;21.652;2023-11-19T14:10:50;0.64;98.88
69162;DHT22;56269;51.738;21.652;2023-11-19T14:13:16;0.62;98.96
69162;DHT22;56269;51.738;21.652;2023-11-19T14:15:43;0.62;99.05
69162;DHT22;56269;51.738;21.652;2023-11-19T14:18:09;0.63;99.05
69162;DHT22;56269;51.738;21.652;2023-11-19T14:20:35;0.62;99.20
69162;DHT22;56269;51.738;21.652;2023-11-19T14:23:05;0.62;99.18
69162;DHT22;56269;51.738;21.652;2023-11-19T14:25:31;0.60;99.28
69162;DHT22;56269;51.738;21.652;2023-11-19T14:27:58;0.60;99.33
69162;DHT22;56269;51.738;21.652;2023-11-19T14:30:24;0.57;99.62
69162;DHT22;56269;51.738;21.652;2023-11-19T14:32:51;0.54;99.80
69162;DHT22;56269;51.738;21.652;2023-11-19T14:35:17;0.52;99.89
69162;DHT22;56269;51.738;21.652;2023-11-19T14:37:46;0.54;99.79
69162;DHT22;56269;51.738;21.652;2023-11-19T14:40:12;0.57;99.65
69162;DHT22;56269;51.738;21.652;2023-11-19T14:42:38;0.56;99.71
69162;DHT22;56269;51.738;21.652;2023-11-19T14:45:06;0.57;99.56
69162;DHT22;56269;51.738;21.652;2023-11-19T14:47:33;0.59;99.40
69162;DHT22;56269;51.738;21.652;2023-11-19T14:49:58;0.57;99.43
69162;DHT22;56269;51.738;21.652;2023-11-19T14:52:26;0.60;99.41
69162;DHT22;56269;51.738;21.652;2023-11-19T14:54:52;0.59;99.48
69162;DHT22;56269;51.738;21.652;2023-11-19T14:57:20;0.60;99.63
69162;DHT22;56269;51.738;21.652;2023-11-19T14:59:46;0.57;99.88
69162;DHT22;56269;51.738;21.652;2023-11-19T15:02:14;0.56;99.99
69162;DHT22;56269;51.738;21.652;2023-11-19T15:04:40;0.52;99.99
69162;DHT22;56269;51.738;21.652;2023-11-19T15:07:08;0.52;99.99
69162;DHT22;56269;51.738;21.652;2023-11-19T15:09:34;0.52;99.99
69162;DHT22;56269;51.738;21.652;2023-11-19T15:12:04;0.54;99.99
69162;DHT22;56269;51.738;21.652;2023-11-19T15:14:31;0.56;99.99
69162;DHT22;56269;51.738;21.652;2023-11-19T15:16:58;0.53;99.99
69162;DHT22;56269;51.738;21.652;2023-11-19T15:19:24;0.53;99.99
69162;DHT22;56269;51.738;21.652;2023-11-19T15:21:50;0.54;99.99
69162;DHT22;56269;51.738;21.652;2023-11-19T15:24:16;0.54;99.99
69162;DHT22;56269;51.738;21.652;2023-11-19T15:26:43;0.56;99.99
69162;DHT22;56269;51.738;21.652;2023-11-19T15:29:09;0.57;99.99
69162;DHT22;56269;51.738;21.652;2023-11-19T15:31:36;0.60;99.99
69162;DHT22;56269;51.738;21.652;2023-11-19T15:34:02;0.59;99.99
69162;DHT22;56269;51.738;21.652;2023-11-19T15:36:29;0.64;99.99
69162;DHT22;56269;51.738;21.652;2023-11-19T15:38:58;0.60;99.99
69162;DHT22;56269;51.738;21.652;2023-11-19T15:41:24;0.60;99.99
69162;DHT22;56269;51.738;21.652;2023-11-19T15:43:53;0.60;99.99
69162;DHT22;56269;51.738;21.652;2023-11-19T15:46:20;0.62;99.99
69162;DHT22;56269;51.738;21.652;2023-11-19T15:48:47;0.64;99.99
69162;DHT22;56269;51.738;21.652;2023-11-19T15:51:13;0.62;99.99